createdAt,value
2018-05-26T00:00:56.071Z,96.42
2018-05-26T00:01:55.988Z,96.13
2018-05-26T00:02:55.934Z,94.50
2018-05-26T00:03:55.838Z,92.97
2018-05-26T00:04:55.778Z,92.97
2018-05-26T00:05:55.706Z,94.79
2018-05-26T00:06:55.633Z,95.65
2018-05-26T00:07:55.547Z,96.61
2018-05-26T00:08:55.483Z,98.14
2018-05-26T00:09:55.403Z,97.56
2018-05-26T00:10:55.332Z,96.51
2018-05-26T00:11:55.266Z,96.03
2018-05-26T00:12:55.191Z,95.75
2018-05-26T00:13:55.109Z,95.75
2018-05-26T00:14:55.049Z,96.13
2018-05-26T00:15:54.963Z,96.61
2018-05-26T00:16:54.895Z,97.66
2018-05-26T00:17:54.813Z,98.71
2018-05-26T00:18:54.755Z,99.00
2018-05-26T00:19:54.670Z,99.00
2018-05-26T00:20:54.603Z,97.28
2018-05-26T00:21:54.516Z,97.28
2018-05-26T00:22:54.452Z,97.95
2018-05-26T00:23:54.379Z,99.29
2018-05-26T00:24:54.303Z,99.48
2018-05-26T00:25:54.233Z,99.99
2018-05-26T00:26:54.161Z,99.99
2018-05-26T00:27:54.079Z,99.38
2018-05-26T00:28:54.011Z,98.28
2018-05-26T00:29:53.928Z,97.90
2018-05-26T00:30:53.860Z,97.80
2018-05-26T00:31:53.779Z,97.61
2018-05-26T00:32:53.727Z,98.47
2018-05-26T00:33:53.633Z,99.04
2018-05-26T00:34:53.577Z,99.04
2018-05-26T00:35:53.495Z,99.43
2018-05-26T00:36:53.426Z,99.90
2018-05-26T00:37:53.343Z,98.85
2018-05-26T00:38:53.278Z,98.09
2018-05-26T00:39:53.199Z,97.99
2018-05-26T00:40:53.129Z,98.28
2018-05-26T00:41:53.047Z,99.14
2018-05-26T00:42:52.987Z,99.43
2018-05-26T00:43:52.894Z,99.04
2018-05-26T00:44:52.834Z,99.43
2018-05-26T00:45:52.754Z,99.43
2018-05-26T00:46:52.688Z,98.47
2018-05-26T00:47:52.608Z,98.38
2018-05-26T00:48:52.543Z,98.38
2018-05-26T00:49:52.462Z,99.66
2018-05-26T00:50:53.391Z,99.95
2018-05-26T00:51:52.320Z,99.99
2018-05-26T00:52:52.251Z,99.99
2018-05-26T00:53:52.166Z,99.99
2018-05-26T00:54:52.097Z,99.99
2018-05-26T00:55:52.019Z,99.99
2018-05-26T00:56:51.946Z,99.99
2018-05-26T00:57:51.865Z,99.99
2018-05-26T00:58:51.798Z,99.99
2018-05-26T00:59:51.716Z,99.99
2018-05-26T01:00:51.656Z,99.99
2018-05-26T01:01:51.585Z,99.99
2018-05-26T01:02:51.503Z,99.99
2018-05-26T01:03:51.426Z,99.99
2018-05-26T01:04:51.355Z,99.99
2018-05-26T01:05:51.281Z,99.99
2018-05-26T01:06:51.208Z,99.99
2018-05-26T01:07:51.127Z,99.99
2018-05-26T01:08:51.061Z,99.99
2018-05-26T01:09:50.978Z,99.43
2018-05-26T01:10:50.922Z,98.80
2018-05-26T01:11:50.828Z,99.95
2018-05-26T01:12:50.767Z,99.99
2018-05-26T01:13:50.683Z,99.99
2018-05-26T01:14:50.624Z,99.99
2018-05-26T01:15:50.531Z,99.99
2018-05-26T01:16:50.473Z,99.43
2018-05-26T01:17:50.388Z,99.09
2018-05-26T01:18:50.318Z,96.51
2018-05-26T01:19:50.238Z,94.12
2018-05-26T01:20:50.172Z,93.45
2018-05-26T01:21:50.089Z,93.74
2018-05-26T01:22:50.025Z,93.84
2018-05-26T01:23:49.944Z,97.18
2018-05-26T01:24:49.882Z,98.71
2018-05-26T01:25:49.794Z,98.99
2018-05-26T01:26:49.727Z,99.99
2018-05-26T01:27:49.655Z,99.99
2018-05-26T01:28:49.584Z,99.99
2018-05-26T01:29:49.505Z,99.99
2018-05-26T01:30:49.429Z,99.66
2018-05-26T01:31:49.351Z,99.99
2018-05-26T01:32:49.285Z,99.99
2018-05-26T01:33:49.202Z,98.71
2018-05-26T01:34:49.134Z,97.66
2018-05-26T01:35:49.055Z,97.85
2018-05-26T01:36:48.999Z,96.42
2018-05-26T01:37:48.907Z,96.32
2018-05-26T01:38:48.838Z,95.75
2018-05-26T01:39:48.756Z,95.84
2018-05-26T01:40:48.696Z,96.70
2018-05-26T01:41:48.609Z,96.51
2018-05-26T01:42:48.551Z,97.75
2018-05-26T01:43:48.469Z,96.89
2018-05-26T01:44:48.393Z,97.37
2018-05-26T01:45:48.312Z,97.66
2018-05-26T01:46:48.247Z,99.66
2018-05-26T01:47:48.166Z,99.38
2018-05-26T01:48:48.097Z,99.57
2018-05-26T01:49:48.017Z,99.76
2018-05-26T01:50:47.952Z,99.09
2018-05-26T01:51:47.867Z,97.94
2018-05-26T01:52:47.807Z,98.80
2018-05-26T01:53:47.714Z,99.33
2018-05-26T01:54:47.648Z,99.99
2018-05-26T01:55:47.567Z,99.99
2018-05-26T01:56:47.511Z,99.99
2018-05-26T01:57:47.421Z,99.99
2018-05-26T01:58:47.359Z,99.99
2018-05-26T01:59:47.279Z,99.99
2018-05-26T02:00:48.212Z,99.99
2018-05-26T02:01:47.126Z,99.99
2018-05-26T02:02:47.065Z,99.99
2018-05-26T02:03:46.990Z,99.99
2018-05-26T02:04:46.909Z,99.99
2018-05-26T02:05:46.829Z,99.99
2018-05-26T02:06:46.765Z,99.99
2018-05-26T02:07:46.679Z,99.99
2018-05-26T02:08:46.611Z,99.99
2018-05-26T02:09:46.526Z,99.99
2018-05-26T02:10:46.476Z,99.99
2018-05-26T02:11:46.382Z,99.99
2018-05-26T02:12:46.316Z,99.99
2018-05-26T02:13:46.242Z,99.99
2018-05-26T02:14:46.168Z,99.99
2018-05-26T02:15:46.085Z,99.99
2018-05-26T02:16:46.019Z,99.99
2018-05-26T02:17:45.932Z,99.99
2018-05-26T02:18:45.869Z,99.99
2018-05-26T02:19:45.802Z,99.99
2018-05-26T02:20:45.728Z,99.99
2018-05-26T02:21:45.634Z,99.99
2018-05-26T02:22:45.568Z,98.85
2018-05-26T02:23:45.489Z,98.18
2018-05-26T02:24:45.421Z,97.03
2018-05-26T02:25:45.338Z,95.79
2018-05-26T02:26:45.280Z,94.84
2018-05-26T02:27:45.190Z,94.93
2018-05-26T02:28:45.127Z,95.79
2018-05-26T02:29:45.048Z,97.32
2018-05-26T02:30:44.975Z,98.85
2018-05-26T02:31:44.892Z,98.75
2018-05-26T02:32:44.830Z,99.62
2018-05-26T02:33:44.744Z,99.99
2018-05-26T02:34:44.678Z,99.99
2018-05-26T02:35:44.594Z,99.99
2018-05-26T02:36:44.539Z,99.99
2018-05-26T02:37:44.446Z,99.99
2018-05-26T02:38:45.380Z,99.99
2018-05-26T02:39:44.294Z,99.99
2018-05-26T02:40:44.228Z,99.99
2018-05-26T02:41:44.150Z,99.99
2018-05-26T02:42:44.081Z,99.99
2018-05-26T02:43:44.002Z,99.99
2018-05-26T02:44:43.933Z,99.99
2018-05-26T02:45:43.854Z,99.99
2018-05-26T02:46:43.782Z,99.99
2018-05-26T02:47:43.697Z,99.85
2018-05-26T02:48:43.636Z,98.42
2018-05-26T02:49:43.552Z,97.66
2018-05-26T02:50:43.483Z,96.70
2018-05-26T02:51:43.400Z,96.98
2018-05-26T02:52:43.337Z,97.18
2018-05-26T02:53:43.251Z,98.71
2018-05-26T02:54:43.190Z,99.66
2018-05-26T02:55:43.119Z,99.99
2018-05-26T02:56:43.036Z,99.99
2018-05-26T02:57:42.958Z,99.99
2018-05-26T02:58:42.891Z,98.52
2018-05-26T02:59:42.803Z,99.04
2018-05-26T03:00:42.740Z,99.99
2018-05-26T03:01:42.653Z,99.66
2018-05-26T03:02:42.592Z,99.95
2018-05-26T03:03:42.505Z,99.52
2018-05-26T03:04:42.439Z,99.80
2018-05-26T03:05:42.366Z,99.99
2018-05-26T03:06:42.310Z,99.99
2018-05-26T03:07:42.217Z,99.99
2018-05-26T03:08:42.138Z,98.85
2018-05-26T03:09:42.053Z,98.57
2018-05-26T03:10:42.026Z,98.71
2018-05-26T03:11:41.907Z,99.18
2018-05-26T03:12:41.933Z,99.95
2018-05-26T03:13:41.758Z,99.99
2018-05-26T03:14:41.741Z,99.99
2018-05-26T03:15:41.616Z,99.99
2018-05-26T03:16:41.549Z,99.99
2018-05-26T03:17:41.461Z,99.99
2018-05-26T03:18:41.467Z,99.99
2018-05-26T03:19:41.327Z,99.99
2018-05-26T03:20:41.245Z,99.99
2018-05-26T03:21:41.164Z,99.99
2018-05-26T03:22:41.184Z,99.99
2018-05-26T03:23:41.012Z,99.99
2018-05-26T03:24:40.988Z,99.99
2018-05-26T03:25:40.862Z,99.99
2018-05-26T03:26:40.896Z,99.99
2018-05-26T03:27:40.718Z,99.99
2018-05-26T03:28:40.642Z,99.99
2018-05-26T03:29:40.575Z,99.99
2018-05-26T03:30:40.521Z,99.99
2018-05-26T03:31:40.414Z,99.99
2018-05-26T03:32:40.346Z,99.99
2018-05-26T03:33:40.261Z,99.99
2018-05-26T03:34:40.197Z,99.99
2018-05-26T03:35:40.113Z,99.99
2018-05-26T03:36:40.047Z,99.99
2018-05-26T03:37:39.962Z,99.99
2018-05-26T03:38:39.953Z,99.99
2018-05-26T03:39:39.819Z,99.99
2018-05-26T03:40:39.753Z,99.99
2018-05-26T03:41:39.660Z,99.99
2018-05-26T03:42:39.607Z,99.99
2018-05-26T03:43:39.516Z,99.99
2018-05-26T03:44:39.449Z,99.99
2018-05-26T03:45:39.361Z,99.99
2018-05-26T03:46:39.300Z,99.99
2018-05-26T03:47:39.217Z,99.99
2018-05-26T03:48:39.162Z,99.99
2018-05-26T03:49:39.073Z,99.99
2018-05-26T03:50:38.998Z,99.99
2018-05-26T03:51:38.924Z,99.99
2018-05-26T03:52:38.848Z,99.99
2018-05-26T03:53:38.765Z,99.99
2018-05-26T03:54:38.705Z,99.99
2018-05-26T03:55:38.615Z,99.99
2018-05-26T03:56:38.649Z,99.99
2018-05-26T03:57:38.468Z,99.99
2018-05-26T03:58:38.450Z,99.99
2018-05-26T03:59:38.318Z,99.99
2018-05-26T04:00:38.261Z,99.99
2018-05-26T04:01:38.171Z,99.99
2018-05-26T04:02:38.169Z,99.99
2018-05-26T04:03:38.018Z,99.99
2018-05-26T04:04:37.982Z,99.99
2018-05-26T04:05:37.869Z,99.85
2018-05-26T04:06:37.808Z,99.99
2018-05-26T04:07:37.720Z,99.99
2018-05-26T04:08:37.697Z,99.66
2018-05-26T04:09:37.576Z,99.99
2018-05-26T04:10:37.609Z,99.99
2018-05-26T04:11:37.420Z,99.99
2018-05-26T04:12:37.421Z,99.99
2018-05-26T04:13:37.296Z,99.99
2018-05-26T04:14:37.227Z,99.99
2018-05-26T04:15:37.119Z,99.99
2018-05-26T04:16:37.139Z,99.99
2018-05-26T04:17:36.966Z,99.99
2018-05-26T04:18:36.946Z,99.99
2018-05-26T04:19:36.816Z,99.99
2018-05-26T04:20:36.857Z,99.99
2018-05-26T04:21:36.672Z,99.99
2018-05-26T04:22:36.666Z,99.99
2018-05-26T04:23:36.519Z,99.99
2018-05-26T04:24:36.478Z,99.99
2018-05-26T04:25:36.369Z,99.99
2018-05-26T04:26:36.386Z,99.99
2018-05-26T04:27:36.223Z,99.99
2018-05-26T04:28:36.196Z,99.99
2018-05-26T04:29:36.072Z,99.99
2018-05-26T04:30:36.103Z,99.99
2018-05-26T04:31:35.920Z,99.99
2018-05-26T04:32:35.917Z,99.99
2018-05-26T04:33:35.774Z,99.99
2018-05-26T04:34:35.722Z,99.99
2018-05-26T04:35:35.624Z,99.99
2018-05-26T04:36:35.634Z,99.99
2018-05-26T04:37:35.473Z,99.99
2018-05-26T04:38:36.451Z,99.99
2018-05-26T04:39:35.320Z,99.99
2018-05-26T04:40:35.351Z,99.99
2018-05-26T04:41:35.170Z,99.99
2018-05-26T04:42:35.162Z,99.99
2018-05-26T04:43:35.022Z,99.99
2018-05-26T04:44:34.969Z,99.99
2018-05-26T04:45:34.871Z,99.99
2018-05-26T04:46:34.879Z,99.99
2018-05-26T04:47:34.716Z,99.99
2018-05-26T04:48:34.695Z,99.99
2018-05-26T04:49:34.570Z,99.99
2018-05-26T04:50:34.600Z,99.99
2018-05-26T04:51:34.427Z,99.99
2018-05-26T04:52:34.410Z,99.99
2018-05-26T04:53:34.274Z,99.99
2018-05-26T04:54:34.216Z,99.99
2018-05-26T04:55:34.133Z,99.99
2018-05-26T04:56:34.131Z,99.99
2018-05-26T04:57:33.976Z,99.99
2018-05-26T04:58:33.937Z,99.99
2018-05-26T04:59:33.831Z,99.99
2018-05-26T05:00:33.847Z,99.99
2018-05-26T05:01:33.676Z,99.99
2018-05-26T05:02:33.652Z,99.99
2018-05-26T05:03:33.526Z,99.99
2018-05-26T05:04:33.570Z,99.99
2018-05-26T05:05:33.382Z,99.99
2018-05-26T05:06:33.376Z,99.99
2018-05-26T05:07:33.224Z,99.99
2018-05-26T05:08:33.183Z,99.99
2018-05-26T05:09:33.077Z,99.99
2018-05-26T05:10:33.096Z,99.99
2018-05-26T05:11:32.933Z,99.99
2018-05-26T05:12:32.907Z,99.99
2018-05-26T05:13:32.776Z,99.99
2018-05-26T05:14:32.815Z,99.99
2018-05-26T05:15:32.634Z,99.99
2018-05-26T05:16:32.622Z,99.99
2018-05-26T05:17:32.474Z,99.99
2018-05-26T05:18:32.431Z,99.99
2018-05-26T05:19:32.331Z,99.99
2018-05-26T05:20:32.343Z,99.99
2018-05-26T05:21:32.180Z,99.99
2018-05-26T05:22:32.151Z,99.99
2018-05-26T05:23:32.035Z,99.99
2018-05-26T05:24:31.964Z,99.99
2018-05-26T05:25:31.881Z,99.99
2018-05-26T05:26:31.877Z,99.99
2018-05-26T05:27:31.735Z,99.99
2018-05-26T05:28:31.680Z,99.99
2018-05-26T05:29:31.584Z,99.99
2018-05-26T05:30:31.597Z,99.99
2018-05-26T05:31:31.435Z,99.99
2018-05-26T05:32:31.436Z,99.99
2018-05-26T05:33:31.285Z,99.99
2018-05-26T05:34:31.314Z,99.99
2018-05-26T05:35:31.138Z,99.99
2018-05-26T05:36:31.119Z,99.99
2018-05-26T05:37:31.003Z,99.99
2018-05-26T05:38:30.914Z,99.99
2018-05-26T05:39:30.933Z,99.99
2018-05-26T05:40:30.769Z,99.99
2018-05-26T05:41:30.743Z,99.99
2018-05-26T05:42:30.619Z,99.99
2018-05-26T05:43:30.552Z,99.99
2018-05-26T05:44:30.477Z,99.99
2018-05-26T05:45:30.404Z,99.99
2018-05-26T05:46:30.323Z,99.99
2018-05-26T05:47:30.256Z,99.99
2018-05-26T05:48:30.172Z,99.99
2018-05-26T05:49:30.107Z,99.99
2018-05-26T05:50:30.028Z,99.99
2018-05-26T05:51:29.999Z,99.99
2018-05-26T05:52:29.883Z,99.99
2018-05-26T05:53:29.809Z,99.99
2018-05-26T05:54:29.728Z,99.99
2018-05-26T05:55:29.669Z,99.99
2018-05-26T05:56:29.622Z,99.99
2018-05-26T05:57:29.522Z,99.99
2018-05-26T05:58:29.432Z,99.99
2018-05-26T05:59:29.411Z,99.99
2018-05-26T06:00:29.286Z,99.99
2018-05-26T06:01:29.215Z,99.99
2018-05-26T06:02:29.138Z,99.99
2018-05-26T06:03:29.131Z,99.99
2018-05-26T06:04:28.987Z,99.99
2018-05-26T06:05:28.940Z,99.99
2018-05-26T06:06:28.841Z,99.99
2018-05-26T06:07:28.852Z,99.99
2018-05-26T06:08:28.695Z,99.99
2018-05-26T06:09:28.663Z,99.99
2018-05-26T06:10:28.548Z,99.99
2018-05-26T06:11:28.576Z,99.99
2018-05-26T06:12:28.401Z,99.99
2018-05-26T06:13:28.384Z,99.99
2018-05-26T06:14:28.255Z,99.99
2018-05-26T06:15:28.303Z,99.99
2018-05-26T06:16:28.104Z,99.99
2018-05-26T06:17:28.103Z,99.99
2018-05-26T06:18:27.956Z,99.99
2018-05-26T06:19:27.912Z,99.99
2018-05-26T06:20:27.809Z,99.99
2018-05-26T06:21:27.824Z,99.99
2018-05-26T06:22:27.659Z,99.99
2018-05-26T06:23:27.633Z,99.99
2018-05-26T06:24:27.510Z,99.99
2018-05-26T06:25:27.547Z,99.99
2018-05-26T06:26:27.379Z,99.99
2018-05-26T06:27:27.351Z,99.99
2018-05-26T06:28:27.217Z,99.99
2018-05-26T06:29:27.264Z,99.99
2018-05-26T06:30:27.075Z,99.99
2018-05-26T06:31:27.078Z,99.99
2018-05-26T06:32:26.925Z,99.99
2018-05-26T06:33:26.886Z,99.99
2018-05-26T06:34:26.779Z,99.99
2018-05-26T06:35:26.799Z,99.99
2018-05-26T06:36:26.629Z,99.99
2018-05-26T06:37:26.605Z,99.99
2018-05-26T06:38:26.481Z,99.99
2018-05-26T06:39:26.516Z,99.99
2018-05-26T06:40:26.336Z,99.99
2018-05-26T06:41:26.324Z,99.99
2018-05-26T06:42:26.194Z,99.99
2018-05-26T06:43:26.235Z,99.99
2018-05-26T06:44:26.048Z,99.99
2018-05-26T06:45:26.045Z,99.99
2018-05-26T06:46:25.897Z,99.99
2018-05-26T06:47:25.855Z,99.99
2018-05-26T06:48:25.753Z,99.99
2018-05-26T06:49:25.765Z,99.99
2018-05-26T06:50:25.601Z,99.99
2018-05-26T06:51:25.574Z,99.99
2018-05-26T06:52:25.458Z,99.99
2018-05-26T06:53:25.494Z,99.99
2018-05-26T06:54:25.317Z,99.99
2018-05-26T06:55:25.297Z,99.99
2018-05-26T06:56:25.161Z,99.99
2018-05-26T06:57:25.209Z,99.99
2018-05-26T06:58:25.019Z,99.99
2018-05-26T06:59:25.017Z,99.99
2018-05-26T07:00:24.877Z,99.99
2018-05-26T07:01:25.853Z,99.99
2018-05-26T07:02:24.728Z,99.99
2018-05-26T07:03:24.739Z,99.99
2018-05-26T07:04:24.591Z,99.99
2018-05-26T07:05:24.546Z,99.99
2018-05-26T07:06:24.443Z,99.99
2018-05-26T07:07:24.457Z,99.99
2018-05-26T07:08:24.299Z,98.38
2018-05-26T07:09:24.269Z,99.58
2018-05-26T07:10:24.147Z,99.68
2018-05-26T07:11:24.179Z,97.96
2018-05-26T07:12:24.003Z,97.09
2018-05-26T07:13:23.983Z,96.80
2018-05-26T07:14:23.858Z,98.14
2018-05-26T07:15:23.898Z,96.75
2018-05-26T07:16:23.715Z,97.52
2018-05-26T07:17:23.706Z,96.27
2018-05-26T07:18:23.573Z,96.27
2018-05-26T07:19:23.617Z,94.54
2018-05-26T07:20:23.427Z,93.24
2018-05-26T07:21:23.426Z,94.98
2018-05-26T07:22:23.287Z,93.44
2018-05-26T07:23:23.233Z,92.67
2018-05-26T07:24:23.137Z,91.52
2018-05-26T07:25:23.147Z,93.53
2018-05-26T07:26:22.994Z,91.90
2018-05-26T07:27:22.958Z,91.03
2018-05-26T07:28:22.855Z,90.26
2018-05-26T07:29:23.889Z,90.45
2018-05-26T07:30:22.710Z,88.82
2018-05-26T07:31:22.678Z,88.82
2018-05-26T07:32:22.563Z,88.77
2018-05-26T07:33:22.587Z,88.19
2018-05-26T07:34:22.422Z,86.65
2018-05-26T07:35:23.356Z,86.46
2018-05-26T07:36:22.284Z,87.66
2018-05-26T07:37:22.308Z,86.99
2018-05-26T07:38:22.135Z,86.22
2018-05-26T07:39:22.117Z,85.93
2018-05-26T07:40:21.989Z,84.77
2018-05-26T07:41:22.032Z,83.42
2018-05-26T07:42:21.850Z,83.14
2018-05-26T07:43:32.900Z,81.70
2018-05-26T07:44:21.709Z,82.31
2018-05-26T07:45:21.753Z,81.93
2018-05-26T07:46:21.566Z,81.54
2018-05-26T07:47:21.560Z,81.93
2018-05-26T07:48:21.425Z,81.73
2018-05-26T07:49:21.467Z,82.64
2018-05-26T07:50:21.285Z,82.26
2018-05-26T07:51:21.325Z,81.87
2018-05-26T07:52:21.141Z,81.10
2018-05-26T07:53:21.194Z,81.20
2018-05-26T07:54:21.005Z,80.81
2018-05-26T07:55:21.008Z,81.20
2018-05-26T07:56:20.947Z,83.74
2018-05-26T07:57:20.912Z,84.03
2018-05-26T07:58:20.769Z,83.36
2018-05-26T07:59:20.720Z,82.01
2018-05-26T08:00:20.581Z,80.66
2018-05-26T08:01:20.633Z,79.02
2018-05-26T08:02:20.444Z,77.28
2018-05-26T08:03:20.439Z,77.33
2018-05-26T08:04:20.299Z,76.90
2018-05-26T08:05:20.352Z,77.67
2018-05-26T08:06:20.161Z,79.11
2018-05-26T08:07:20.174Z,78.54
2018-05-26T08:08:20.032Z,78.06
2018-05-26T08:09:20.074Z,79.25
2018-05-26T08:10:19.890Z,79.25
2018-05-26T08:11:19.878Z,78.29
2018-05-26T08:12:19.763Z,77.26
2018-05-26T08:13:19.803Z,76.59
2018-05-26T08:14:19.636Z,77.84
2018-05-26T08:15:19.603Z,77.07
2018-05-26T08:16:19.506Z,77.88
2018-05-26T08:17:19.586Z,77.59
2018-05-26T08:18:19.332Z,75.76
2018-05-26T08:19:19.339Z,73.83
2018-05-26T08:20:19.207Z,74.99
2018-05-26T08:21:19.233Z,75.09
2018-05-26T08:22:19.063Z,74.99
2018-05-26T08:23:19.043Z,75.67
2018-05-26T08:24:18.920Z,76.34
2018-05-26T08:25:18.959Z,76.05
2018-05-26T08:26:18.800Z,73.44
2018-05-26T08:27:18.781Z,70.64
2018-05-26T08:28:18.651Z,72.67
2018-05-26T08:29:18.571Z,72.09
2018-05-26T08:30:18.503Z,72.48
2018-05-26T08:31:18.451Z,72.09
2018-05-26T08:32:18.377Z,70.64
2018-05-26T08:33:18.409Z,70.45
2018-05-26T08:34:18.240Z,70.36
2018-05-26T08:35:18.205Z,71.12
2018-05-26T08:36:18.113Z,70.06
2018-05-26T08:37:18.120Z,68.81
2018-05-26T08:38:17.975Z,68.23
2018-05-26T08:39:17.897Z,68.81
2018-05-26T08:40:17.947Z,67.75
2018-05-26T08:41:17.758Z,68.62
2018-05-26T08:42:17.743Z,70.06
2018-05-26T08:43:17.623Z,70.84
2018-05-26T08:44:17.657Z,72.32
2018-05-26T08:45:17.486Z,70.78
2018-05-26T08:46:17.459Z,69.62
2018-05-26T08:47:17.353Z,70.78
2018-05-26T08:48:17.377Z,69.65
2018-05-26T08:49:17.213Z,69.36
2018-05-26T08:50:17.279Z,69.26
2018-05-26T08:51:17.083Z,69.74
2018-05-26T08:52:17.095Z,68.20
2018-05-26T08:53:16.946Z,67.04
2018-05-26T08:54:17.005Z,68.20
2018-05-26T08:55:16.811Z,67.43
2018-05-26T08:56:16.816Z,67.24
2018-05-26T08:57:16.675Z,67.82
2018-05-26T08:58:16.728Z,66.56
2018-05-26T08:59:16.546Z,67.43
2018-05-26T09:00:16.537Z,67.08
2018-05-26T09:01:16.410Z,65.88
2018-05-26T09:02:16.494Z,65.88
2018-05-26T09:03:16.273Z,65.98
2018-05-26T09:04:16.256Z,66.17
2018-05-26T09:05:16.142Z,65.14
2018-05-26T09:06:16.175Z,65.98
2018-05-26T09:07:16.011Z,66.85
2018-05-26T09:08:16.081Z,67.43
2018-05-26T09:09:15.874Z,68.88
2018-05-26T09:10:15.884Z,67.43
2018-05-26T09:11:15.783Z,68.10
2018-05-26T09:12:15.800Z,70.62
2018-05-26T09:13:15.601Z,71.52
2018-05-26T09:14:15.615Z,67.46
2018-05-26T09:15:15.466Z,66.98
2018-05-26T09:16:15.519Z,67.59
2018-05-26T09:17:15.345Z,68.95
2018-05-26T09:18:15.345Z,65.27
2018-05-26T09:19:15.208Z,65.34
2018-05-26T09:20:15.239Z,66.98
2018-05-26T09:21:15.078Z,66.69
2018-05-26T09:22:15.052Z,64.37
2018-05-26T09:23:14.933Z,64.18
2018-05-26T09:24:15.984Z,65.82
2018-05-26T09:25:14.892Z,68.37
2018-05-26T09:26:14.872Z,66.43
2018-05-26T09:27:14.666Z,65.66
2018-05-26T09:28:14.677Z,64.98
2018-05-26T09:29:14.530Z,64.01
2018-05-26T09:30:14.658Z,67.21
2018-05-26T09:31:14.408Z,65.88
2018-05-26T09:32:14.401Z,64.72
2018-05-26T09:33:14.276Z,68.59
2018-05-26T09:34:14.325Z,65.88
2018-05-26T09:35:14.135Z,66.02
2018-05-26T09:36:14.123Z,67.05
2018-05-26T09:37:14.005Z,64.92
2018-05-26T09:38:13.935Z,63.76
2018-05-26T09:39:13.939Z,66.17
2018-05-26T09:40:13.807Z,65.11
2018-05-26T09:41:13.869Z,64.17
2018-05-26T09:42:13.672Z,65.72
2018-05-26T09:43:14.570Z,63.89
2018-05-26T09:44:13.539Z,63.69
2018-05-26T09:45:13.569Z,62.04
2018-05-26T09:46:13.406Z,61.76
2018-05-26T09:47:13.453Z,62.14
2018-05-26T09:48:13.278Z,61.27
2018-05-26T09:49:13.259Z,63.92
2018-05-26T09:50:13.143Z,61.27
2018-05-26T09:51:13.168Z,61.85
2018-05-26T09:52:13.013Z,60.88
2018-05-26T09:53:12.983Z,61.36
2018-05-26T09:54:12.880Z,62.53
2018-05-26T09:55:12.893Z,65.14
2018-05-26T09:56:12.750Z,65.82
2018-05-26T09:57:12.795Z,63.59
2018-05-26T09:58:12.619Z,61.11
2018-05-26T09:59:12.608Z,63.43
2018-05-26T10:00:12.491Z,63.53
2018-05-26T10:01:12.521Z,63.56
2018-05-26T10:02:12.357Z,59.97
2018-05-26T10:03:12.326Z,61.82
2018-05-26T10:04:12.230Z,59.59
2018-05-26T10:05:12.241Z,59.10
2018-05-26T10:06:12.098Z,59.49
2018-05-26T10:07:12.048Z,59.59
2018-05-26T10:08:11.965Z,62.98
2018-05-26T10:09:11.957Z,63.75
2018-05-26T10:10:11.838Z,60.55
2018-05-26T10:11:11.867Z,60.72
2018-05-26T10:12:11.702Z,65.01
2018-05-26T10:13:11.681Z,64.43
2018-05-26T10:14:11.576Z,63.27
2018-05-26T10:15:11.590Z,58.14
2018-05-26T10:16:11.448Z,57.36
2018-05-26T10:17:11.397Z,59.17
2018-05-26T10:18:11.314Z,60.52
2018-05-26T10:19:11.311Z,62.66
2018-05-26T10:20:11.184Z,61.21
2018-05-26T10:21:11.218Z,63.34
2018-05-26T10:22:11.060Z,63.07
2018-05-26T10:23:11.031Z,63.37
2018-05-26T10:24:10.925Z,60.46
2018-05-26T10:25:10.940Z,61.98
2018-05-26T10:26:10.829Z,60.91
2018-05-26T10:27:10.750Z,59.17
2018-05-26T10:28:10.668Z,59.17
2018-05-26T10:29:10.659Z,58.11
2018-05-26T10:30:10.536Z,61.40
2018-05-26T10:31:10.572Z,65.08
2018-05-26T10:32:10.410Z,61.14
2018-05-26T10:33:10.380Z,61.62
2018-05-26T10:34:10.278Z,60.65
2018-05-26T10:35:10.290Z,58.62
2018-05-26T10:36:10.154Z,58.23
2018-05-26T10:37:10.102Z,57.94
2018-05-26T10:38:10.065Z,56.41
2018-05-26T10:39:10.011Z,57.19
2018-05-26T10:40:09.892Z,59.52
2018-05-26T10:41:09.929Z,57.29
2018-05-26T10:42:09.768Z,58.45
2018-05-26T10:43:09.733Z,60.81
2018-05-26T10:44:09.644Z,57.61
2018-05-26T10:45:09.642Z,56.15
2018-05-26T10:46:09.505Z,54.99
2018-05-26T10:47:09.585Z,55.67
2018-05-26T10:48:09.377Z,54.60
2018-05-26T10:49:09.364Z,56.51
2018-05-26T10:50:09.251Z,57.29
2018-05-26T10:51:09.274Z,60.30
2018-05-26T10:52:09.127Z,58.55
2018-05-26T10:53:09.082Z,59.64
2018-05-26T10:54:08.989Z,58.09
2018-05-26T10:55:08.993Z,59.26
2018-05-26T10:56:08.863Z,60.52
2018-05-26T10:57:08.903Z,61.32
2018-05-26T10:58:08.749Z,55.60
2018-05-26T10:59:08.709Z,55.31
2018-05-26T11:00:08.606Z,55.41
2018-05-26T11:01:08.624Z,58.44
2018-05-26T11:02:08.478Z,55.31
2018-05-26T11:03:08.433Z,56.47
2018-05-26T11:04:08.380Z,57.73
2018-05-26T11:05:08.344Z,57.15
2018-05-26T11:06:08.225Z,59.41
2018-05-26T11:07:08.254Z,57.47
2018-05-26T11:08:08.092Z,56.28
2018-05-26T11:09:08.065Z,56.57
2018-05-26T11:10:07.970Z,54.70
2018-05-26T11:11:07.976Z,55.77
2018-05-26T11:12:07.842Z,57.87
2018-05-26T11:13:07.888Z,58.36
2018-05-26T11:14:07.709Z,57.00
2018-05-26T11:15:07.700Z,57.19
2018-05-26T11:16:07.779Z,58.06
2018-05-26T11:17:07.634Z,58.36
2018-05-26T11:18:07.460Z,57.22
2018-05-26T11:19:07.422Z,59.26
2018-05-26T11:20:07.333Z,59.28
2018-05-26T11:21:07.324Z,59.19
2018-05-26T11:22:07.200Z,57.73
2018-05-26T11:23:07.235Z,58.97
2018-05-26T11:24:07.337Z,58.41
2018-05-26T11:25:07.062Z,59.19
2018-05-26T11:26:06.984Z,58.41
2018-05-26T11:27:06.955Z,58.90
2018-05-26T11:28:06.820Z,59.51
2018-05-26T11:29:09.034Z,55.24
2018-05-26T11:31:06.651Z,57.76
2018-05-26T11:32:07.449Z,57.08
2018-05-26T11:33:06.586Z,60.87
2018-05-26T11:34:07.105Z,60.48
2018-05-26T11:35:06.395Z,57.28
2018-05-26T11:36:06.310Z,56.57
2018-05-26T11:37:06.308Z,56.28
2018-05-26T11:38:06.184Z,56.57
2018-05-26T11:39:06.218Z,54.21
2018-05-26T11:40:06.057Z,54.58
2018-05-26T11:41:06.026Z,54.58
2018-05-26T11:42:05.928Z,56.03
2018-05-26T11:43:05.945Z,58.48
2018-05-26T11:44:05.801Z,60.42
2018-05-26T11:45:05.849Z,59.19
2018-05-26T11:46:05.674Z,57.15
2018-05-26T11:47:05.658Z,56.28
2018-05-26T11:48:05.549Z,55.77
2018-05-26T11:49:05.580Z,55.18
2018-05-26T11:50:05.420Z,55.08
2018-05-26T11:51:05.377Z,56.54
2018-05-26T11:52:05.294Z,54.60
2018-05-26T11:53:05.307Z,54.90
2018-05-26T11:54:05.171Z,55.47
2018-05-26T11:55:05.199Z,54.90
2018-05-26T11:56:05.038Z,55.67
2018-05-26T11:57:05.010Z,55.77
2018-05-26T11:58:04.909Z,55.69
2018-05-26T11:59:04.917Z,57.54
2018-05-26T12:00:04.786Z,57.34
2018-05-26T12:01:04.830Z,54.72
2018-05-26T12:02:04.703Z,53.97
2018-05-26T12:03:04.639Z,54.27
2018-05-26T12:04:04.528Z,54.72
2018-05-26T12:05:04.552Z,55.69
2018-05-26T12:06:04.398Z,57.34
2018-05-26T12:07:04.360Z,54.66
2018-05-26T12:08:04.279Z,54.66
2018-05-26T12:09:04.271Z,53.49
2018-05-26T12:10:04.144Z,53.17
2018-05-26T12:11:04.195Z,54.07
2018-05-26T12:12:04.023Z,54.44
2018-05-26T12:13:03.986Z,54.56
2018-05-26T12:14:03.890Z,54.27
2018-05-26T12:15:03.903Z,53.69
2018-05-26T12:16:03.763Z,56.01
2018-05-26T12:17:03.811Z,53.69
2018-05-26T12:18:03.639Z,54.34
2018-05-26T12:19:03.619Z,53.95
2018-05-26T12:20:03.512Z,53.92
2018-05-26T12:21:03.532Z,54.31
2018-05-26T12:22:03.386Z,54.60
2018-05-26T12:23:03.340Z,55.87
2018-05-26T12:24:03.255Z,55.38
2018-05-26T12:25:03.251Z,57.34
2018-05-26T12:26:03.122Z,56.67
2018-05-26T12:27:03.159Z,56.09
2018-05-26T12:28:03.003Z,55.31
2018-05-26T12:29:02.977Z,54.27
2018-05-26T12:30:02.872Z,53.97
2018-05-26T12:31:02.879Z,52.81
2018-05-26T12:32:02.793Z,53.61
2018-05-26T12:33:02.794Z,54.17
2018-05-26T12:34:02.633Z,51.65
2018-05-26T12:35:02.602Z,51.84
2018-05-26T12:36:02.495Z,53.69
2018-05-26T12:37:02.515Z,52.98
2018-05-26T12:38:02.369Z,52.20
2018-05-26T12:39:02.312Z,54.82
2018-05-26T12:40:02.296Z,54.92
2018-05-26T12:41:02.234Z,54.53
2018-05-26T12:42:02.114Z,55.11
2018-05-26T12:43:02.143Z,57.37
2018-05-26T12:44:01.984Z,52.88
2018-05-26T12:45:01.951Z,53.78
2018-05-26T12:46:01.858Z,54.46
2018-05-26T12:47:01.862Z,54.27
2018-05-26T12:48:01.727Z,54.36
2018-05-26T12:49:01.772Z,54.27
2018-05-26T12:50:01.605Z,54.85
2018-05-26T12:51:01.583Z,52.33
2018-05-26T12:52:01.480Z,52.06
2018-05-26T12:53:01.492Z,51.67